createdAt,value
2019-05-23T00:00:32.637Z,6.43
2019-05-23T00:03:00.043Z,5.17
2019-05-23T00:05:33.366Z,6.63
2019-05-23T00:08:00.772Z,7.07
2019-05-23T00:10:28.209Z,6.40
2019-05-23T00:13:01.755Z,6.43
2019-05-23T00:15:35.226Z,5.07
2019-05-23T00:18:02.630Z,5.43
2019-05-23T00:20:30.030Z,5.17
2019-05-23T00:22:57.473Z,5.30
2019-05-23T00:25:24.886Z,6.27
2019-05-23T00:27:52.285Z,4.87
2019-05-23T00:30:37.724Z,5.20
2019-05-23T00:33:05.120Z,5.87
2019-05-23T00:35:32.524Z,6.97
2019-05-23T00:37:59.966Z,5.77
2019-05-23T00:40:27.368Z,5.70
2019-05-23T00:42:54.758Z,5.87
2019-05-23T00:45:22.181Z,6.87
2019-05-23T00:47:49.598Z,6.47
2019-05-23T00:50:17.044Z,5.57
2019-05-23T00:52:44.617Z,6.07
2019-05-23T00:55:12.033Z,6.90
2019-05-23T00:57:42.329Z,7.87
2019-05-23T01:00:09.752Z,8.23
2019-05-23T01:02:37.148Z,6.10
2019-05-23T01:05:04.565Z,6.30
2019-05-23T01:07:31.988Z,6.87
2019-05-23T01:09:59.416Z,7.40
2019-05-23T01:12:26.796Z,6.80
2019-05-23T01:14:54.398Z,6.77
2019-05-23T01:17:21.803Z,8.70
2019-05-23T01:19:49.210Z,9.23
2019-05-23T01:22:16.657Z,9.83
2019-05-23T01:24:44.064Z,8.47
2019-05-23T01:27:11.471Z,8.87
2019-05-23T01:29:38.933Z,8.60
2019-05-23T01:32:24.852Z,11.13
2019-05-23T01:34:52.282Z,12.83
2019-05-23T01:37:19.704Z,7.87
2019-05-23T01:39:47.128Z,9.63
2019-05-23T01:42:14.540Z,9.23
2019-05-23T01:44:41.945Z,8.47
2019-05-23T01:47:09.358Z,8.13
2019-05-23T01:49:36.793Z,9.00
2019-05-23T01:52:04.187Z,8.23
2019-05-23T01:54:31.586Z,8.67
2019-05-23T01:56:59.041Z,7.80
2019-05-23T01:59:26.453Z,7.70
2019-05-23T02:01:53.850Z,8.40
2019-05-23T02:04:21.279Z,9.10
2019-05-23T02:06:48.694Z,7.40
2019-05-23T02:09:16.104Z,8.77
2019-05-23T02:11:43.538Z,7.93
2019-05-23T02:14:10.940Z,11.43
2019-05-23T02:16:38.348Z,9.27
2019-05-23T02:19:05.941Z,9.40
2019-05-23T02:21:33.352Z,8.53
2019-05-23T02:24:00.759Z,9.70
2019-05-23T02:26:28.197Z,9.70
2019-05-23T02:28:55.615Z,10.83
2019-05-23T02:31:23.023Z,8.20
2019-05-23T02:33:50.767Z,6.83
2019-05-23T02:36:18.177Z,7.10
2019-05-23T02:38:51.308Z,7.40
2019-05-23T02:41:24.638Z,9.17
2019-05-23T02:43:52.072Z,7.50
2019-05-23T02:46:22.111Z,6.57
2019-05-23T02:48:49.562Z,9.77
2019-05-23T02:51:16.968Z,7.43
2019-05-23T02:53:44.381Z,8.97
2019-05-23T02:56:11.809Z,9.40
2019-05-23T02:58:48.412Z,7.97
2019-05-23T03:01:15.820Z,8.57
2019-05-23T03:03:43.231Z,7.67
2019-05-23T03:06:10.629Z,7.63
2019-05-23T03:08:38.063Z,8.17
2019-05-23T03:11:14.581Z,8.30
2019-05-23T03:13:42.017Z,8.80
2019-05-23T03:16:09.430Z,7.60
2019-05-23T03:18:36.828Z,9.10
2019-05-23T03:21:04.375Z,7.87
2019-05-23T03:23:31.790Z,8.13
2019-05-23T03:25:59.212Z,13.67
2019-05-23T03:28:26.637Z,11.43
2019-05-23T03:31:25.607Z,11.67
2019-05-23T03:33:27.058Z,10.53
2019-05-23T03:35:54.664Z,12.03
2019-05-23T03:38:22.028Z,9.97
2019-05-23T03:40:49.426Z,12.07
2019-05-23T03:43:17.123Z,12.93
2019-05-23T03:45:50.396Z,10.13
2019-05-23T03:48:17.806Z,12.27
2019-05-23T03:50:45.263Z,11.20
2019-05-23T03:53:12.683Z,11.80
2019-05-23T03:55:40.085Z,10.70
2019-05-23T03:58:07.519Z,9.97
2019-05-23T04:00:34.928Z,12.83
2019-05-23T04:03:02.350Z,12.10
2019-05-23T04:05:29.938Z,10.90
2019-05-23T04:07:57.347Z,12.23
2019-05-23T04:10:24.757Z,10.10
2019-05-23T04:12:52.191Z,9.60
2019-05-23T04:15:19.599Z,13.23
2019-05-23T04:17:47.010Z,11.57
2019-05-23T04:20:14.442Z,9.33
2019-05-23T04:22:41.841Z,12.63
2019-05-23T04:25:09.251Z,9.70
2019-05-23T04:27:36.793Z,10.53
2019-05-23T04:30:06.828Z,13.13
2019-05-23T04:32:34.237Z,13.30
2019-05-23T04:35:01.698Z,11.13
2019-05-23T04:37:29.306Z,11.97
2019-05-23T04:39:56.711Z,10.93
2019-05-23T04:42:24.153Z,10.10
2019-05-23T04:44:51.581Z,9.23
2019-05-23T04:47:18.978Z,10.17
2019-05-23T04:49:46.410Z,9.83
2019-05-23T04:52:13.819Z,11.73
2019-05-23T04:54:41.212Z,9.60
2019-05-23T04:57:08.642Z,12.17
2019-05-23T04:59:36.054Z,10.20
2019-05-23T05:02:03.464Z,10.97
2019-05-23T05:04:30.890Z,9.30
2019-05-23T05:06:58.292Z,9.27
2019-05-23T05:09:28.617Z,21.23
2019-05-23T05:11:56.120Z,9.23
2019-05-23T05:14:23.565Z,10.60
2019-05-23T05:16:50.991Z,7.67
2019-05-23T05:19:18.415Z,9.33
2019-05-23T05:21:45.825Z,10.73
2019-05-23T05:24:13.284Z,10.33
2019-05-23T05:26:40.740Z,11.20
2019-05-23T05:29:08.135Z,13.17
2019-05-23T05:31:35.539Z,7.70
2019-05-23T05:34:03.004Z,8.47
2019-05-23T05:36:30.394Z,7.77
2019-05-23T05:38:57.969Z,9.50
2019-05-23T05:41:25.368Z,8.57
2019-05-23T05:43:52.810Z,9.53
2019-05-23T05:46:20.200Z,7.80
2019-05-23T05:48:47.653Z,8.43
2019-05-23T05:51:15.052Z,9.50
2019-05-23T05:53:42.466Z,7.50
2019-05-23T05:56:09.922Z,10.57
2019-05-23T05:58:37.315Z,7.33
2019-05-23T06:01:04.851Z,11.03
2019-05-23T06:03:32.208Z,10.17
2019-05-23T06:06:02.168Z,9.83
2019-05-23T06:08:29.865Z,8.27
2019-05-23T06:10:57.356Z,9.80
2019-05-23T06:13:24.718Z,11.27
2019-05-23T06:15:52.118Z,8.63
2019-05-23T06:18:19.562Z,11.30
2019-05-23T06:20:46.978Z,9.73
2019-05-23T06:23:14.403Z,9.23
2019-05-23T06:25:41.857Z,9.00
2019-05-23T06:28:09.272Z,12.93
2019-05-23T06:30:36.677Z,10.27
2019-05-23T06:33:19.956Z,10.77
2019-05-23T06:35:31.568Z,13.73
2019-05-23T06:38:00.482Z,8.40
2019-05-23T06:40:28.359Z,9.10
2019-05-23T06:42:55.760Z,10.97
2019-05-23T06:45:23.167Z,9.60
2019-05-23T06:47:51.754Z,9.33
2019-05-23T06:50:19.159Z,10.07
2019-05-23T06:52:46.581Z,11.87
2019-05-23T06:55:14.033Z,9.50
2019-05-23T06:57:41.452Z,12.70
2019-05-23T07:00:08.845Z,10.07
2019-05-23T07:02:36.459Z,10.50
2019-05-23T07:05:03.864Z,9.83
2019-05-23T07:07:31.265Z,12.40
2019-05-23T07:09:58.694Z,12.23
2019-05-23T07:12:26.088Z,8.75
2019-05-23T07:14:53.488Z,11.38
2019-05-23T07:17:20.926Z,9.40
2019-05-23T07:19:48.332Z,10.48
2019-05-23T07:22:18.580Z,15.75
2019-05-23T07:24:57.705Z,8.45
2019-05-23T07:27:10.584Z,11.23
2019-05-23T07:29:37.993Z,12.18
2019-05-23T07:32:05.431Z,11.68
2019-05-23T07:34:32.826Z,12.40
2019-05-23T07:37:00.228Z,11.68
2019-05-23T07:39:27.945Z,9.30
2019-05-23T07:41:56.064Z,9.55
2019-05-23T07:44:23.461Z,13.35
2019-05-23T07:46:51.053Z,9.30
2019-05-23T07:49:18.466Z,7.25
2019-05-23T07:51:45.895Z,9.85
2019-05-23T07:54:14.113Z,7.65
2019-05-23T07:56:40.759Z,10.02
2019-05-23T07:59:08.157Z,7.85
2019-05-23T08:01:38.566Z,11.12
2019-05-23T08:04:20.661Z,11.45
2019-05-23T08:06:33.336Z,7.85
2019-05-23T08:09:00.784Z,9.13
2019-05-23T08:11:28.195Z,9.88
2019-05-23T08:13:55.591Z,6.62
2019-05-23T08:16:23.019Z,12.32
2019-05-23T08:18:50.433Z,6.75
2019-05-23T08:21:17.820Z,8.77
2019-05-23T08:23:45.257Z,7.60
2019-05-23T08:26:12.682Z,5.85
2019-05-23T08:29:00.496Z,11.63
2019-05-23T08:31:07.629Z,7.25
2019-05-23T08:33:36.122Z,9.45
2019-05-23T08:36:03.547Z,7.40
2019-05-23T08:38:30.971Z,8.48
2019-05-23T08:40:58.375Z,7.53
2019-05-23T08:43:27.219Z,6.47
2019-05-23T08:45:54.645Z,8.35
2019-05-23T08:48:22.046Z,7.97
2019-05-23T08:50:51.533Z,7.62
2019-05-23T08:53:17.037Z,7.05
2019-05-23T08:55:44.424Z,6.20
2019-05-23T08:58:11.826Z,7.32
2019-05-23T09:00:39.343Z,7.37
2019-05-23T09:03:06.694Z,6.90
2019-05-23T09:05:34.098Z,7.37
2019-05-23T09:08:01.543Z,6.30
2019-05-23T09:10:28.938Z,8.35
2019-05-23T09:12:56.339Z,8.23
2019-05-23T09:15:23.788Z,7.12
2019-05-23T09:17:53.465Z,6.85
2019-05-23T09:20:18.612Z,6.07
2019-05-23T09:22:46.037Z,7.07
2019-05-23T09:25:13.442Z,6.07
2019-05-23T09:27:40.848Z,5.78
2019-05-23T09:30:08.268Z,6.97
2019-05-23T09:32:35.656Z,6.33
2019-05-23T09:35:19.231Z,6.80
2019-05-23T09:37:30.560Z,4.43
2019-05-23T09:39:57.965Z,5.45
2019-05-23T09:42:25.363Z,3.95
2019-05-23T09:44:53.173Z,4.45
2019-05-23T09:47:20.579Z,7.45
2019-05-23T09:49:53.548Z,3.42
2019-05-23T09:52:15.618Z,3.60
2019-05-23T09:54:42.830Z,3.10
2019-05-23T09:57:10.244Z,6.37
2019-05-23T09:59:38.010Z,3.28
2019-05-23T10:02:05.456Z,4.57
2019-05-23T10:04:32.869Z,3.80
2019-05-23T10:07:00.300Z,4.12
2019-05-23T10:09:27.706Z,5.60
2019-05-23T10:11:55.118Z,5.53
2019-05-23T10:14:22.543Z,2.75
2019-05-23T10:16:49.946Z,3.40
2019-05-23T10:19:17.350Z,6.07
2019-05-23T10:21:44.961Z,2.83
2019-05-23T10:24:12.365Z,2.10
2019-05-23T10:26:39.765Z,1.98
2019-05-23T10:29:07.199Z,2.53
2019-05-23T10:31:34.601Z,4.10
2019-05-23T10:34:02.014Z,2.08
2019-05-23T10:36:29.423Z,2.15
2019-05-23T10:38:56.830Z,3.80
2019-05-23T10:41:24.223Z,3.37
2019-05-23T10:43:51.975Z,2.37
2019-05-23T10:46:20.559Z,5.25
2019-05-23T10:48:47.956Z,3.40
2019-05-23T10:51:15.395Z,4.10
2019-05-23T10:53:42.800Z,2.85
2019-05-23T10:56:10.197Z,5.85
2019-05-23T10:58:37.646Z,5.45
2019-05-23T11:01:05.040Z,3.75
2019-05-23T11:03:32.435Z,2.30
2019-05-23T11:06:13.350Z,4.10
2019-05-23T11:08:29.825Z,5.45
2019-05-23T11:10:54.870Z,2.62
2019-05-23T11:13:22.255Z,3.15
2019-05-23T11:15:49.656Z,2.95
2019-05-23T11:18:17.058Z,2.53
2019-05-23T11:20:44.493Z,3.70
2019-05-23T11:23:11.991Z,4.15
2019-05-23T11:25:39.347Z,5.70
2019-05-23T11:28:06.766Z,3.15
2019-05-23T11:30:34.158Z,3.50
2019-05-23T11:33:01.580Z,2.47
2019-05-23T11:35:28.980Z,2.47
2019-05-23T11:37:56.386Z,2.37
2019-05-23T11:40:23.775Z,4.93
2019-05-23T11:42:52.775Z,2.30
2019-05-23T11:45:18.601Z,2.83
2019-05-23T11:47:47.032Z,3.25
2019-05-23T11:50:14.748Z,3.30
2019-05-23T11:52:42.148Z,4.82
2019-05-23T11:55:09.556Z,2.40
2019-05-23T11:57:37.991Z,5.37
2019-05-23T12:00:04.473Z,2.28
2019-05-23T12:02:31.882Z,2.00
2019-05-23T12:04:59.318Z,4.32
2019-05-23T12:07:26.708Z,2.33
2019-05-23T12:09:54.116Z,2.47
2019-05-23T12:12:21.553Z,6.30
2019-05-23T12:14:48.956Z,3.53
2019-05-23T12:17:16.403Z,2.77
2019-05-23T12:19:43.841Z,3.17
2019-05-23T12:22:11.199Z,2.13
2019-05-23T12:24:38.654Z,3.33
2019-05-23T12:27:06.059Z,2.60
2019-05-23T12:29:33.465Z,4.10
2019-05-23T12:32:00.878Z,3.53
2019-05-23T12:34:28.415Z,3.03
2019-05-23T12:37:17.096Z,2.67
2019-05-23T12:39:23.221Z,2.92
2019-05-23T12:41:50.678Z,2.75
2019-05-23T12:44:18.295Z,5.30
2019-05-23T12:46:45.480Z,8.73
2019-05-23T12:49:13.920Z,5.17
2019-05-23T12:51:44.060Z,2.57
2019-05-23T12:54:11.466Z,3.10
2019-05-23T12:56:39.052Z,2.83
2019-05-23T12:59:06.503Z,6.63
2019-05-23T13:01:33.906Z,4.77
2019-05-23T13:04:01.337Z,2.95
2019-05-23T13:06:28.733Z,2.33
2019-05-23T13:08:56.141Z,2.30
2019-05-23T13:11:23.598Z,12.13
2019-05-23T13:13:50.995Z,3.33
2019-05-23T13:16:18.403Z,3.00
2019-05-23T13:18:45.863Z,4.57
2019-05-23T13:21:13.288Z,4.47
2019-05-23T13:23:40.677Z,3.30
2019-05-23T13:26:08.116Z,3.33
2019-05-23T13:28:35.515Z,7.83
2019-05-23T13:31:02.911Z,4.60
2019-05-23T13:33:30.346Z,6.23
2019-05-23T13:35:57.736Z,4.40
2019-05-23T13:38:25.162Z,2.67
2019-05-23T13:40:52.941Z,8.70
2019-05-23T13:43:20.335Z,3.83
2019-05-23T13:45:47.763Z,3.03
2019-05-23T13:48:15.201Z,2.70
2019-05-23T13:50:44.457Z,3.70
2019-05-23T13:53:11.870Z,4.97
2019-05-23T13:55:39.318Z,2.92
2019-05-23T13:58:06.727Z,3.17
2019-05-23T14:00:34.164Z,4.45
2019-05-23T14:03:01.739Z,2.87
2019-05-23T14:05:29.140Z,2.45
2019-05-23T14:08:10.583Z,5.10
2019-05-23T14:10:23.982Z,3.50
2019-05-23T14:12:51.392Z,4.53
2019-05-23T14:15:18.797Z,3.85
2019-05-23T14:17:46.236Z,5.37
2019-05-23T14:20:13.661Z,6.18
2019-05-23T14:22:41.077Z,4.57
2019-05-23T14:25:09.499Z,5.35
2019-05-23T14:27:36.904Z,6.03
2019-05-23T14:30:12.295Z,6.97
2019-05-23T14:32:40.370Z,7.62
2019-05-23T14:35:07.780Z,4.00
2019-05-23T14:37:41.258Z,14.60
2019-05-23T14:40:08.696Z,7.05
2019-05-23T14:42:45.283Z,5.80
2019-05-23T14:45:12.687Z,5.60
2019-05-23T14:47:43.119Z,6.23
2019-05-23T14:50:13.384Z,4.85
2019-05-23T14:52:47.931Z,5.47
2019-05-23T14:55:15.348Z,4.87
2019-05-23T14:57:42.762Z,7.40
2019-05-23T15:00:10.182Z,4.80
2019-05-23T15:02:37.578Z,5.55
2019-05-23T15:05:08.107Z,7.40
2019-05-23T15:07:35.711Z,3.60
2019-05-23T15:10:03.108Z,5.67
2019-05-23T15:12:30.506Z,4.53
2019-05-23T15:14:57.946Z,4.47
2019-05-23T15:17:25.349Z,4.60
2019-05-23T15:19:52.749Z,3.90
2019-05-23T15:22:20.181Z,3.67
2019-05-23T15:24:47.599Z,7.13
2019-05-23T15:27:14.987Z,6.47
2019-05-23T15:29:42.454Z,4.20
2019-05-23T15:32:09.848Z,6.27
2019-05-23T15:34:37.257Z,4.67
2019-05-23T15:37:04.701Z,4.37
2019-05-23T15:39:32.099Z,5.70
2019-05-23T15:41:59.510Z,4.20
2019-05-23T15:44:29.623Z,5.57
2019-05-23T15:46:54.357Z,5.67
2019-05-23T15:49:21.756Z,4.27
2019-05-23T15:51:54.864Z,4.63
2019-05-23T15:54:38.278Z,4.40
2019-05-23T15:57:05.703Z,5.70
2019-05-23T15:59:35.934Z,4.27
2019-05-23T16:02:05.809Z,5.30
2019-05-23T16:04:33.260Z,5.43
2019-05-23T16:07:00.684Z,4.53
2019-05-23T16:09:30.599Z,7.13
2019-05-23T16:11:55.831Z,6.17
2019-05-23T16:14:23.235Z,5.80
2019-05-23T16:16:50.650Z,7.37
2019-05-23T16:19:18.056Z,9.70
2019-05-23T16:21:45.467Z,3.63
2019-05-23T16:24:12.870Z,4.87
2019-05-23T16:26:40.300Z,6.83
2019-05-23T16:29:07.713Z,5.17
2019-05-23T16:31:35.108Z,4.60
2019-05-23T16:34:02.707Z,6.93
2019-05-23T16:36:30.121Z,4.97
2019-05-23T16:38:57.534Z,5.90
2019-05-23T16:41:25.005Z,5.63
2019-05-23T16:43:52.435Z,3.37
2019-05-23T16:46:19.914Z,6.07
2019-05-23T16:48:47.366Z,3.90
2019-05-23T16:51:14.694Z,4.33
2019-05-23T16:53:42.096Z,4.40
2019-05-23T16:56:16.343Z,4.40
2019-05-23T16:58:43.744Z,7.37
2019-05-23T17:01:23.518Z,6.70
2019-05-23T17:03:47.480Z,6.73
2019-05-23T17:06:20.733Z,12.87
2019-05-23T17:08:56.885Z,4.00
2019-05-23T17:11:24.287Z,5.40
2019-05-23T17:13:51.684Z,4.80
2019-05-23T17:16:22.175Z,5.43
2019-05-23T17:18:52.148Z,5.80
2019-05-23T17:21:19.544Z,6.37
2019-05-23T17:23:49.818Z,7.60
2019-05-23T17:26:32.574Z,8.10
2019-05-23T17:29:00.025Z,5.97
2019-05-23T17:31:27.412Z,4.83
2019-05-23T17:33:54.823Z,7.17
2019-05-23T17:36:22.409Z,6.30
2019-05-23T17:38:49.815Z,3.80
2019-05-23T17:41:17.207Z,4.50
2019-05-23T17:43:46.215Z,5.63
2019-05-23T17:46:13.622Z,4.30
2019-05-23T17:48:41.031Z,6.80
2019-05-23T17:51:08.508Z,5.57
2019-05-23T17:53:35.915Z,6.30
2019-05-23T17:56:03.339Z,5.60
2019-05-23T17:58:31.936Z,5.10
2019-05-23T18:00:59.411Z,6.37
2019-05-23T18:03:26.749Z,5.00
2019-05-23T18:05:54.159Z,4.27
2019-05-23T18:08:22.728Z,6.63
2019-05-23T18:10:48.989Z,5.90
2019-05-23T18:13:16.443Z,4.43
2019-05-23T18:15:43.812Z,4.47
2019-05-23T18:18:11.215Z,9.77
2019-05-23T18:20:38.747Z,7.23
2019-05-23T18:23:06.150Z,6.07
2019-05-23T18:25:33.558Z,4.07
2019-05-23T18:28:01.009Z,5.57
2019-05-23T18:30:31.123Z,6.13
2019-05-23T18:32:58.526Z,4.30
2019-05-23T18:35:25.963Z,6.33
2019-05-23T18:37:53.376Z,5.17
2019-05-23T18:40:20.789Z,4.33
2019-05-23T18:42:48.401Z,6.87
2019-05-23T18:45:15.797Z,4.80
2019-05-23T18:47:43.199Z,5.37
2019-05-23T18:50:10.640Z,5.27
2019-05-23T18:52:38.050Z,4.10
2019-05-23T18:55:05.445Z,5.40
2019-05-23T18:57:32.879Z,4.53
2019-05-23T19:00:01.598Z,6.63
2019-05-23T19:02:28.996Z,6.30
2019-05-23T19:04:56.686Z,5.97
2019-05-23T19:07:24.092Z,6.73
2019-05-23T19:09:51.511Z,5.43
2019-05-23T19:12:18.965Z,4.90
2019-05-23T19:14:46.376Z,8.13
2019-05-23T19:17:13.789Z,4.27
2019-05-23T19:19:41.239Z,6.70
2019-05-23T19:22:08.649Z,6.60
2019-05-23T19:24:36.046Z,5.60
2019-05-23T19:27:03.649Z,5.67
2019-05-23T19:29:31.066Z,5.10
2019-05-23T19:31:58.490Z,5.70
2019-05-23T19:34:25.919Z,4.77
2019-05-23T19:36:53.341Z,4.80
2019-05-23T19:39:20.744Z,6.83
2019-05-23T19:41:48.180Z,6.50
2019-05-23T19:44:15.578Z,5.03
2019-05-23T19:46:42.990Z,5.63
2019-05-23T19:49:10.585Z,7.03
2019-05-23T19:51:38.021Z,5.40
2019-05-23T19:54:05.416Z,8.20
2019-05-23T19:56:32.865Z,6.17
2019-05-23T19:59:00.267Z,5.50
2019-05-23T20:01:32.012Z,5.27
2019-05-23T20:03:56.031Z,5.60
2019-05-23T20:06:23.449Z,7.40
2019-05-23T20:08:50.872Z,6.83
2019-05-23T20:11:18.332Z,6.90
2019-05-23T20:13:45.758Z,6.23
2019-05-23T20:16:13.194Z,10.07
2019-05-23T20:18:40.643Z,9.20
2019-05-23T20:21:08.026Z,6.40
2019-05-23T20:23:35.430Z,6.03
2019-05-23T20:26:02.871Z,6.53
2019-05-23T20:28:30.278Z,7.53
2019-05-23T20:30:57.687Z,6.93
2019-05-23T20:33:25.158Z,7.73
2019-05-23T20:35:52.568Z,8.13
2019-05-23T20:38:19.999Z,6.27
2019-05-23T20:40:47.781Z,8.10
2019-05-23T20:43:15.206Z,9.43
2019-05-23T20:45:42.647Z,9.57
2019-05-23T20:48:10.074Z,8.73
2019-05-23T20:50:37.479Z,8.77
2019-05-23T20:53:04.894Z,8.27
2019-05-23T20:55:32.531Z,8.10
2019-05-23T20:57:59.941Z,11.27
2019-05-23T21:00:33.336Z,8.27
2019-05-23T21:03:01.692Z,7.70
2019-05-23T21:05:29.101Z,7.10
2019-05-23T21:07:56.509Z,8.00
2019-05-23T21:10:42.106Z,8.87
2019-05-23T21:13:09.491Z,8.70
2019-05-23T21:15:36.903Z,9.07
2019-05-23T21:18:04.330Z,7.40
2019-05-23T21:20:31.743Z,7.73
2019-05-23T21:22:59.205Z,10.10
2019-05-23T21:25:26.644Z,10.03
2019-05-23T21:27:54.085Z,12.53
2019-05-23T21:30:21.489Z,8.23
2019-05-23T21:32:49.201Z,8.60
2019-05-23T21:35:16.609Z,8.97
2019-05-23T21:37:44.000Z,7.13
2019-05-23T21:40:11.475Z,7.77
2019-05-23T21:42:47.674Z,6.97
2019-05-23T21:45:06.254Z,9.07
2019-05-23T21:47:33.687Z,11.17
2019-05-23T21:50:01.108Z,7.43
2019-05-23T21:52:28.498Z,9.97
2019-05-23T21:54:56.280Z,8.30
2019-05-23T21:57:23.690Z,8.67
2019-05-23T21:59:51.119Z,8.83
2019-05-23T22:02:30.608Z,8.83
2019-05-23T22:04:59.255Z,8.60
2019-05-23T22:07:26.678Z,8.27
2019-05-23T22:09:54.103Z,8.93
2019-05-23T22:12:21.500Z,7.53
2019-05-23T22:14:48.909Z,8.10
2019-05-23T22:17:16.509Z,7.47
2019-05-23T22:19:43.960Z,11.67
2019-05-23T22:22:11.341Z,8.03
2019-05-23T22:24:38.761Z,8.17
2019-05-23T22:27:06.175Z,11.80
2019-05-23T22:29:33.597Z,9.40
2019-05-23T22:32:01.020Z,9.57
2019-05-23T22:34:37.622Z,9.23
2019-05-23T22:37:05.037Z,8.63
2019-05-23T22:39:32.642Z,9.93
2019-05-23T22:42:00.045Z,10.17
2019-05-23T22:44:27.450Z,8.37
2019-05-23T22:46:54.909Z,10.27
2019-05-23T22:49:22.310Z,9.33
2019-05-23T22:51:49.825Z,10.93
2019-05-23T22:54:17.263Z,8.17
2019-05-23T22:56:44.671Z,7.87
2019-05-23T22:59:12.084Z,12.13
2019-05-23T23:01:39.712Z,10.47
2019-05-23T23:04:07.109Z,9.27
2019-05-23T23:06:35.332Z,9.30
2019-05-23T23:09:02.752Z,8.30
2019-05-23T23:11:30.152Z,8.30
2019-05-23T23:13:57.560Z,8.40
2019-05-23T23:16:24.984Z,9.07
2019-05-23T23:18:52.391Z,8.67
2019-05-23T23:21:19.830Z,8.53
2019-05-23T23:23:47.296Z,10.27
2019-05-23T23:26:14.710Z,8.77
2019-05-23T23:28:42.120Z,10.03
2019-05-23T23:31:09.557Z,13.07
2019-05-23T23:33:36.987Z,10.07
2019-05-23T23:36:04.438Z,10.90
2019-05-23T23:38:31.862Z,8.60
2019-05-23T23:40:59.279Z,8.60
2019-05-23T23:43:26.680Z,9.07
2019-05-23T23:46:12.476Z,8.17
2019-05-23T23:48:57.731Z,9.57
2019-05-23T23:51:43.502Z,8.13
2019-05-23T23:54:29.016Z,9.57
2019-05-23T23:57:14.712Z,8.90
2019-05-23T23:59:41.593Z,10.50
